• vieta
  • image
  • image
  • image
mod_vvisit_countermod_vvisit_countermod_vvisit_countermod_vvisit_countermod_vvisit_countermod_vvisit_counter
mod_vvisit_counterŠiandien25
mod_vvisit_counterVakar681
mod_vvisit_counterŠią savaitę706
mod_vvisit_counterPraėjusią savaitę3728
mod_vvisit_counterŠį mėnesį15227
mod_vvisit_counterPraėjusį mėnesį19965
mod_vvisit_counterViso909041

Mes turime: 10 svečius, 1 bots online
Jūsų IP: 54.162.163.181
 , 
Šiandien: Geg 28, 2018
Oro uostas / Įmonė

Apie įmonę

 

Savivaldybės įmonė Šiaulių oro uostas.

2003 m. lapkričio mėn. Šiaulių miesto savivaldybės tarybos sprendimu įsteigta Savivaldybės įmonė Šiaulių oro uostas, kuriai LR Vyriausybės nutarimu suteikta teisė aptarnauti civilinį susisiekimą kariniame Šiaulių aerodrome.

Įmonė yra ribotos civilinės atsakomybės viešasis juridinis asmuo.

Įmonės pagrindinė veikla – oro uosto eksploatavimas ir oro transporto paslaugos.

Svarbiausi veiklos uždaviniai – teikti viešąsias keleivių ir krovinių vežimo oro transportu paslaugas.

Įmonėje dirba 21 darbuotojas.


Įmonės struktūra:

 

Šiandien

Pirmadienis, 28 Gegužė 2018

Orų prognozė aviacijai

[source: ADDS]
METAR
EYSA 272250Z AUTO 01005KT 9999NDV NCD 15/11 Q1027 =
TAF
SR / SS: 02:00 / 18:50 UTC (EYSA 2018-05-28)

Paieška

Lankytojai

Mes turime 11 svečius online

tic logo lt